Terminal Aerodrome Forecast
Issued by NWS

Home | Current Version | Previous Version | Text Only | Print | Product List | Glossary On
Versions: 1 2 3 4 5 6 7 8 9 10 11 12 13 14 15 16 17 18 19 20 21 22 23 24 25 26 27 28 29 30 31 32 33 34 35 36 37 38 39 40 41 42 43 44 45 46 47
902
FTUS44 KMOB 190528
TAFBFM
TAF
KBFM 190528Z 1906/2006 17003KT 1/4SM FG VV002
     FM191300 15005KT 1SM BR OVC007
     FM191500 16008KT P6SM BKN010
     FM191800 16010KT 5SM HZ BKN020
      TEMPO 1919/1923 VRB35KT 2SM TSRA BKN011CB
     FM200000 18005KT 4SM BR VCSH BKN015=

USA.gov is the U.S. government's official web portal to all federal, state and local government web resources and services.